Chongqing Jiangbei International Airport
ZUCK : now visible

Airfield :











YOU CAN JOIN US ON...

 
LOGIN :

Register | Disclaimer

   EN    FR    IT 

 









Legend :    VFR   Marginal VFR   IFR   Intensive IFR   Very Intensive IFR
Visi :
Ceiling :
>= 8 km
>= 3000ft
5 to 8 km
1000 to 3000 ft
1500m to 5 km
500 to 1000 ft
800 to 1500m
200 to 500 ft
< 800m
< 200 ft
Symbols :   Thunderstorms  Fog  Heavy snow  Heavy precipitations  Wind > 20 kt






- Airport Elevation : 1365 ft
- IATA code : CKG


ZUCK - Chongqing Jiangbei International

CURRENT METAR :
  • 221000Z 04004MPS 5000 HZ FEW033 12/06 Q1016 NOSIG

EXPIRED METARs :
  • 220900Z 03004MPS 5000 HZ FEW033 12/06 Q1016 NOSIG
  • 220800Z 03002MPS 350V050 5000 HZ FEW033 12/06 Q1016 NOSIG

TAF TAF ZUCK
Valid from the 22 at 06:00 until the 23 at 06:00 UTC


220302Z 2206/2306 03003MPS 3500 BR OVC040 TX11/2208Z TN08/2222Z



MET'MAP, your aeronautical weather chart ! - Copyright ORBIFLY December 2007 - Disclaimer

ORBIFLY MET'MAP TEAM :

Programming & Development : Alexandra Zaïnal
Concept & original design : Baudouin d'Aumeries
Assistance for programming : Marc-Olivier Méhu
Technical & hardware support : Manuel Goepfert

Contact : metmap@orbifly.com




SOURCES & CREDITS :

   NOAA       Earth
Advisory